Corpus Christi, TX

2:38 PM CDT on March 24, 2017 (GMT -0500)
Corpus Christi International | | Change Station

Elev 43 ft 27.77 °N, 97.50 °W | Updated 47 minutes ago

Overcast
Overcast
79 °F
Feels Like 79 °F
N
28
Wind Variable Wind from SSE
Gusts 36 mph

Today
High -- | Low -- °F
--% Chance of Precip.
Yesterday
High -- | Low -- °F
Precip. -- in
Pressure 29.95 in
Visibility 10.0 miles
Clouds Few 2000 ft
Mostly Cloudy 3000 ft
Mostly Cloudy 6500 ft
Overcast 25000 ft
Dew Point 70 °F
Humidity 74%
Rainfall 0.00 in
Snow Depth Not available.
7:29 AM 7:43 PM
Waning Crescent, 13% visible
METAR KCRP 241851Z 16024G31KT 10SM FEW020 BKN030 BKN065 OVC250 26/21 A2995 RMK AO2 PK WND 15033/1817 SLP140 T02610211
Pressure 29.95 in
Visibility 10.0 miles
Clouds Few 2000 ft
Mostly Cloudy 3000 ft
Mostly Cloudy 6500 ft
Overcast 25000 ft
Dew Point 70 °F
Humidity 74%
Rainfall 0.00 in
Snow Depth Not available.
7:29 AM 7:43 PM
Waning Crescent, 13% visible
METAR KCRP 241851Z 16024G31KT 10SM FEW020 BKN030 BKN065 OVC250 26/21 A2995 RMK AO2 PK WND 15033/1817 SLP140 T02610211

Get Severe Weather Alerts

Thanks for signing up!

Be on the lookout for a verification email in your inbox.

You'll start receiving the daily forecast at 8 AM.

×

10-Day Weather Forecast

Almanac

Astronomy

Mar. 24, 2017 Rise Set
Actual Time
Civil Twilight
Nautical Twilight
Astronomical Twilight
Moon
Length of Visible Light
Length of Day
Tomorrow will be .
, % of the Moon is Illuminated

Today's Extremes

State Highs State Lows

Community

WunderPhotos

Upload Photos

1,962,540 photos uploaded!

WunderBlog® & News

Nearby

Air Quality

  Air Quality AQ Index Pollutant
Not available.

Snow Depth

Station Depth Elevation

Earthquake Activity

City Distance Mag. Time & Date
Minimum magnitude displayed is 2.5.

Earthquake Activity

City Distance Mag. Time & Date
Minimum magnitude displayed is 2.5.

Coastal Water Temperatures

Place Temperature

Stations

Nearby Weather Stations

Station Location Temp. Windchill Dew Point Humidity Wind Precip. Elev Updated Type
                   

Watches & Warnings

There are currently no watches in effect.